CheckWX is a tool to help pilots better visualize weather data.  It is not intended as a substitute for an official pre-flight weather briefing.

15:36:07 UTC

PAGY METAR
Skagway Airport
Skagway, Alaska, USA
Current

20 mins ago

PAGY 241516Z AUTO 00000KT 1SM -RA BR FEW004 SCT019 OVC044 11/10 A3005 RMK AO2 VIS 1/2V3 RAB07 P0000 T01060100 TSNO
Observed
Jun-24 @ 15:16 UTC
Visibility
1 SM
Flight Rules
IFR
Conditions
Light Rain, Mist
Cloud Levels
  • Few at 400' AGL
  • Scattered at 1,900' AGL
  • Overcast at 4,400' AGL
Temperature
11°C / 52°F
Dewpoint
10°C / 50°F
Humidity
94%
Altimeter
30.05" Hg
Pressure
1017.62 hPa
Current Rain
0.01"
Previous

35 mins ago

PAGY 241501Z AUTO 00000KT 1 1/4SM BR SCT019 OVC045 11/10 A3004 RMK AO2 VIS 1/2V5 T01060100 TSNO
Observed
Jun-24 @ 15:01 UTC
Visibility
1 1/4 SM
Flight Rules
IFR
Conditions
Mist
Cloud Levels
  • Scattered at 1,900' AGL
  • Overcast at 4,500' AGL
Temperature
11°C / 52°F
Dewpoint
10°C / 50°F
Humidity
94%
Altimeter
30.04" Hg
Pressure
1017.32 hPa
Previous

43 mins ago

PAGY 241453Z AUTO 00000KT 10SM SCT019 OVC044 12/11 A3005 RMK AO2 SLP176 60000 T01170111 55000 TSNO
Observed
Jun-24 @ 14:53 UTC
Visibility
10 SM
Flight Rules
VFR
Cloud Levels
  • Scattered at 1,900' AGL
  • Overcast at 4,400' AGL
Temperature
12°C / 54°F
Dewpoint
11°C / 52°F
Humidity
94%
Altimeter
30.05" Hg
Pressure
1017.62 hPa